Time;durP1;ratioP1;P1;durP2;ratioP2;P2;SDS_P1;SDS_P2;PMS_P1;PMS_P2;Temp;Humidity;BMP_temperature;BMP_pressure;BME280_temperature;BME280_humidity;BME280_pressure;Samples;Min_cycle;Max_cycle;Signal;HPM_P1;HPM_P2
2022/02/09 00:03:58;;;;;;;8.85;2.95;;;8.50;99.90;;;;;;5038795;28;20405;-60
2022/02/09 00:09:05;;;;;;;6.15;3.45;;;8.40;99.90;;;;;;5037850;28;20511;-56
2022/02/09 00:11:39;;;;;;;5.93;3.75;;;8.40;99.90;;;;;;5048149;28;20029;-59
2022/02/09 00:19:22;;;;;;;6.70;4.22;;;8.30;99.90;;;;;;5034227;28;20044;-61
2022/02/09 00:22:07;;;;;;;7.63;3.97;;;8.30;99.90;;;;;;5036660;28;20384;-61
2022/02/09 00:37:46;;;;;;;3.10;2.60;;;8.30;99.90;;;;;;5041303;28;20049;-60
2022/02/09 00:43:10;;;;;;;3.65;2.47;;;8.30;99.90;;;;;;5031420;28;20052;-61
2022/02/09 01:40:29;;;;;;;3.50;2.40;;;8.10;99.90;;;;;;5029792;28;20095;-59
2022/02/09 01:56:23;;;;;;;;;;;8.00;99.90;;;;;;5039053;28;19966;-58
2022/02/09 01:58:50;;;;;;;5.13;3.45;;;8.00;99.90;;;;;;5043483;28;20660;-56
2022/02/09 02:01:15;;;;;;;4.65;3.63;;;8.00;99.90;;;;;;5041997;28;20036;-58
2022/02/09 02:03:43;;;;;;;7.72;3.22;;;8.00;99.90;;;;;;5039922;28;20033;-57
2022/02/09 02:06:09;;;;;;;7.03;3.45;;;8.00;99.90;;;;;;5046356;28;20036;-57
2022/02/09 02:08:35;;;;;;;4.55;3.20;;;8.00;99.90;;;;;;5034427;28;20029;-57
2022/02/09 02:18:41;;;;;;;5.32;3.25;;;8.00;99.90;;;;;;5042451;28;20033;-57
2022/02/09 02:35:03;;;;;;;4.03;2.92;;;7.90;99.90;;;;;;5045878;28;20732;-58
2022/02/09 03:09:12;;;;;;;5.38;1.65;;;8.00;99.90;;;;;;5046116;28;20047;-57
2022/02/09 03:14:26;;;;;;;2.78;1.90;;;8.00;99.90;;;;;;5039309;28;20032;-58
2022/02/09 03:17:00;;;;;;;2.35;1.70;;;8.00;99.90;;;;;;5038449;28;20021;-57
2022/02/09 03:52:11;;;;;;;4.10;2.10;;;8.00;99.90;;;;;;4989769;28;20217;-57
2022/02/09 03:54:54;;;;;;;3.45;2.55;;;8.00;99.90;;;;;;5037535;28;20165;-58
2022/02/09 03:57:26;;;;;;;4.30;2.20;;;8.00;99.90;;;;;;5042975;28;20037;-59
2022/02/09 03:59:52;;;;;;;4.35;2.53;;;8.00;99.90;;;;;;5026065;28;20033;-60
2022/02/09 04:02:18;;;;;;;3.53;2.55;;;8.10;99.90;;;;;;5038816;28;20403;-59
2022/02/09 04:04:48;;;;;;;3.58;1.95;;;8.00;99.90;;;;;;5032842;28;20036;-56
2022/02/09 04:07:13;;;;;;;2.30;2.00;;;8.10;99.90;;;;;;5045006;28;20033;-58
2022/02/09 04:09:45;;;;;;;6.68;2.40;;;8.10;99.90;;;;;;5042894;28;20029;-53
2022/02/09 04:12:28;;;;;;;2.55;1.98;;;8.20;99.90;;;;;;5038858;28;20037;-54
2022/02/09 04:20:15;;;;;;;3.45;1.92;;;8.20;99.90;;;;;;5034885;28;20124;-53
2022/02/09 04:39:00;;;;;;;2.75;1.95;;;8.20;99.90;;;;;;5034432;28;20018;-58
2022/02/09 04:54:21;;;;;;;1.85;1.55;;;8.20;99.90;;;;;;5040773;28;20060;-59
2022/02/09 04:56:54;;;;;;;2.20;1.50;;;8.20;99.90;;;;;;5032912;28;21210;-59
2022/02/09 05:02:30;;;;;;;1.75;1.33;;;8.20;99.90;;;;;;5027418;28;20080;-58
2022/02/09 05:19:13;;;;;;;5.00;2.60;;;8.20;99.90;;;;;;5042359;28;20044;-60
2022/02/09 05:24:16;;;;;;;6.07;2.78;;;8.20;99.90;;;;;;5039603;28;20108;-57
2022/02/09 05:26:49;;;;;;;4.20;2.83;;;8.20;99.90;;;;;;5040823;28;20029;-57
2022/02/09 05:29:15;;;;;;;6.47;4.00;;;8.20;99.90;;;;;;5034874;28;20029;-58
2022/02/09 05:31:40;;;;;;;6.53;3.30;;;8.20;99.90;;;;;;5038321;28;20025;-59
2022/02/09 05:34:08;;;;;;;5.10;3.55;;;8.20;99.90;;;;;;5037719;28;20047;-59
2022/02/09 05:36:34;;;;;;;4.68;3.38;;;8.20;99.90;;;;;;5036888;28;20067;-59
2022/02/09 05:39:00;;;;;;;6.60;3.67;;;8.30;99.90;;;;;;5035586;28;20499;-59
2022/02/09 05:41:26;;;;;;;5.60;3.25;;;8.20;99.90;;;;;;5035661;28;20029;-59
2022/02/09 05:43:51;;;;;;;8.93;4.15;;;8.30;99.90;;;;;;5034763;28;20030;-59
2022/02/09 05:51:52;;;;;;;5.68;3.63;;;8.20;99.90;;;;;;5037657;28;20043;-59
2022/02/09 05:54:46;;;;;;;5.10;3.78;;;8.30;99.90;;;;;;5033704;28;20038;-58
2022/02/09 05:59:48;;;;;;;5.85;4.10;;;8.20;99.90;;;;;;5034064;28;20017;-59
2022/02/09 06:02:16;;;;;;;3.92;3.17;;;8.20;99.90;;;;;;5017452;28;20056;-59
2022/02/09 06:04:43;;;;;;;4.20;2.95;;;8.10;99.90;;;;;;5031922;28;20112;-58
2022/02/09 06:07:09;;;;;;;4.60;3.25;;;8.10;99.90;;;;;;5044783;28;20774;-58
2022/02/09 06:09:36;;;;;;;3.80;3.00;;;8.10;99.90;;;;;;5032760;28;20041;-59
2022/02/09 06:14:57;;;;;;;4.70;2.70;;;8.00;99.90;;;;;;5030965;28;20025;-59
2022/02/09 06:20:07;;;;;;;7.75;3.75;;;8.00;99.90;;;;;;5041995;28;20044;-56
2022/02/09 06:22:34;;;;;;;6.40;3.17;;;8.00;99.90;;;;;;5047371;28;20032;-58
2022/02/09 06:25:00;;;;;;;4.03;3.33;;;8.00;99.90;;;;;;5037718;28;20107;-58
2022/02/09 06:27:26;;;;;;;8.02;4.78;;;8.00;99.90;;;;;;5040242;28;20471;-59
2022/02/09 06:29:51;;;;;;;17.30;11.15;;;8.00;99.90;;;;;;5038945;28;20047;-59
2022/02/09 06:32:19;;;;;;;23.70;14.98;;;7.90;99.90;;;;;;5033633;28;20056;-59
2022/02/09 06:34:46;;;;;;;53.33;37.67;;;8.00;99.90;;;;;;5032997;28;20104;-57
2022/02/09 06:37:26;;;;;;;16.35;11.65;;;8.00;99.90;;;;;;5043987;28;20041;-59
2022/02/09 06:40:00;;;;;;;24.65;20.58;;;8.00;99.90;;;;;;5040485;28;20636;-59
2022/02/09 06:42:28;;;;;;;10.32;8.48;;;8.00;99.90;;;;;;5036370;28;20109;-59
2022/02/09 06:44:58;;;;;;;8.02;7.00;;;8.00;99.90;;;;;;5038232;28;20040;-59
2022/02/09 06:47:27;;;;;;;5.32;4.45;;;8.00;99.90;;;;;;5039300;28;20033;-59
2022/02/09 06:50:06;;;;;;;8.07;4.93;;;8.00;99.90;;;;;;5040457;28;20470;-59
2022/02/09 06:52:32;;;;;;;5.25;4.45;;;8.00;99.90;;;;;;5044921;28;20044;-57
2022/02/09 06:57:58;;;;;;;6.18;4.40;;;8.00;99.90;;;;;;5035621;28;20392;-59
2022/02/09 07:00:23;;;;;;;6.50;4.20;;;8.00;99.90;;;;;;5048694;28;20033;-58
2022/02/09 07:02:49;;;;;;;9.38;4.78;;;8.00;99.90;;;;;;5027199;28;20132;-56
2022/02/09 07:05:15;;;;;;;5.30;3.75;;;8.00;99.90;;;;;;5037446;28;20107;-59
2022/02/09 07:07:44;;;;;;;5.75;3.95;;;8.00;99.90;;;;;;5039901;28;20036;-59
2022/02/09 07:10:11;;;;;;;7.53;4.15;;;8.10;99.90;;;;;;5044321;28;20510;-58
2022/02/09 07:12:41;;;;;;;6.95;3.72;;;8.10;99.90;;;;;;5036509;28;20097;-59
2022/02/09 07:15:10;;;;;;;4.60;4.00;;;8.10;99.90;;;;;;5034701;28;20030;-58
2022/02/09 07:17:36;;;;;;;5.55;4.13;;;8.10;99.90;;;;;;5036894;28;20035;-59
2022/02/09 07:20:11;;;;;;;6.50;4.63;;;8.10;99.90;;;;;;5042169;28;20033;-59
2022/02/09 07:22:38;;;;;;;5.80;4.47;;;8.10;99.90;;;;;;5048008;28;20037;-57
2022/02/09 07:25:10;;;;;;;7.05;4.13;;;8.20;99.90;;;;;;5037626;28;20022;-58
2022/02/09 07:27:47;;;;;;;8.15;4.13;;;8.10;99.90;;;;;;5037978;28;20036;-55
2022/02/09 07:30:13;;;;;;;7.30;4.22;;;8.10;99.90;;;;;;5039591;28;20586;-58
2022/02/09 07:32:39;;;;;;;7.32;4.07;;;8.10;99.90;;;;;;5039486;28;20071;-57
2022/02/09 07:35:05;;;;;;;7.38;4.80;;;8.20;99.90;;;;;;5042022;28;20114;-57
2022/02/09 07:37:30;;;;;;;8.95;4.68;;;8.20;99.90;;;;;;5039039;28;20164;-59
2022/02/09 07:39:58;;;;;;;27.25;14.45;;;8.20;99.90;;;;;;5042915;28;20027;-58
2022/02/09 07:42:27;;;;;;;22.05;9.90;;;8.20;99.90;;;;;;5040543;28;20044;-56
2022/02/09 07:45:08;;;;;;;25.65;13.00;;;8.20;99.90;;;;;;5039719;28;20025;-58
2022/02/09 07:52:49;;;;;;;46.10;18.48;;;8.20;99.90;;;;;;5038492;28;20111;-59
2022/02/09 07:55:14;;;;;;;45.08;18.15;;;8.30;99.90;;;;;;5046809;28;20041;-57
2022/02/09 07:57:40;;;;;;;46.58;17.83;;;8.30;99.90;;;;;;5037760;28;20034;-59
2022/02/09 08:00:08;;;;;;;35.50;15.60;;;8.30;99.90;;;;;;5036997;28;20058;-59
2022/02/09 08:02:34;;;;;;;30.38;11.98;;;8.30;99.90;;;;;;5017868;28;20747;-59
2022/02/09 08:04:59;;;;;;;43.40;18.90;;;8.30;99.90;;;;;;5037828;28;20099;-59
2022/02/09 08:07:26;;;;;;;31.48;14.02;;;8.30;99.90;;;;;;5040031;28;20063;-59
2022/02/09 08:09:52;;;;;;;40.75;15.93;;;8.40;99.90;;;;;;5033684;28;20032;-59
2022/02/09 08:12:35;;;;;;;36.72;15.05;;;8.40;99.90;;;;;;5041658;28;20902;-59
2022/02/09 08:22:05;;;;;;;53.75;19.85;;;8.50;99.90;;;;;;5043631;28;20060;-58
2022/02/09 08:23:49;;;;;;;37.85;14.57;;;8.50;99.90;;;;;;5036227;28;20060;-59
2022/02/09 08:28:51;;;;;;;11.98;5.60;;;8.60;99.90;;;;;;5045380;28;20021;-58
2022/02/09 08:33:46;;;;;;;17.52;9.52;;;8.70;99.90;;;;;;5037087;28;20709;-57
2022/02/09 08:36:13;;;;;;;13.50;7.60;;;8.60;99.90;;;;;;5038244;28;20036;-58
2022/02/09 08:38:42;;;;;;;9.27;4.97;;;8.70;99.90;;;;;;5037067;28;20048;-57
2022/02/09 08:41:08;;;;;;;6.53;4.00;;;8.70;99.90;;;;;;5034517;28;20029;-56
2022/02/09 08:43:33;;;;;;;16.45;7.65;;;8.70;99.90;;;;;;5046687;28;20459;-59
2022/02/09 08:45:59;;;;;;;11.73;4.45;;;8.70;99.90;;;;;;5031993;28;20033;-59
2022/02/09 08:48:24;;;;;;;8.40;5.70;;;8.70;99.90;;;;;;5034561;28;20041;-58
2022/02/09 08:50:52;;;;;;;7.18;3.67;;;8.80;99.90;;;;;;5042747;28;20120;-59
2022/02/09 08:53:19;;;;;;;4.75;3.15;;;8.70;99.90;;;;;;5032648;28;20033;-59
2022/02/09 08:55:47;;;;;;;8.05;3.28;;;8.70;99.90;;;;;;5032697;28;20029;-58
2022/02/09 08:58:15;;;;;;;6.22;2.88;;;8.70;99.90;;;;;;5037066;28;20026;-59
2022/02/09 09:00:41;;;;;;;3.42;2.20;;;8.70;99.90;;;;;;5037599;28;20032;-58
2022/02/09 09:05:59;;;;;;;5.65;3.22;;;8.70;99.90;;;;;;5029866;28;20391;-59
2022/02/09 10:02:47;;;;;;;6.68;4.25;;;9.00;99.90;;;;;;5044438;28;20494;-59
2022/02/09 10:05:38;;;;;;;14.65;5.75;;;9.00;99.90;;;;;;5013763;28;20132;-58
2022/02/09 10:31:04;;;;;;;33.65;16.08;;;9.30;99.90;;;;;;5019027;28;20482;-59
2022/02/09 10:33:30;;;;;;;14.32;6.70;;;9.30;99.90;;;;;;5021426;28;20032;-59
2022/02/09 10:36:12;;;;;;;17.42;8.18;;;9.40;99.90;;;;;;5020330;28;20013;-58
2022/02/09 10:38:40;;;;;;;19.25;9.00;;;9.40;99.90;;;;;;5019354;28;21732;-58
2022/02/09 10:41:26;;;;;;;7.65;3.92;;;9.50;99.90;;;;;;5021703;28;20029;-58
2022/02/09 10:44:08;;;;;;;7.93;4.80;;;9.40;99.90;;;;;;5017426;28;20060;-59
2022/02/09 10:46:49;;;;;;;8.95;5.55;;;9.40;99.90;;;;;;5013951;28;20101;-58
2022/02/09 10:49:17;;;;;;;7.88;4.72;;;9.40;99.90;;;;;;5013027;28;20445;-58
2022/02/09 10:51:51;;;;;;;6.97;3.78;;;9.30;99.90;;;;;;5014837;28;20042;-58
2022/02/09 10:54:23;;;;;;;6.45;3.75;;;9.30;99.90;;;;;;5022690;28;20117;-60
2022/02/09 10:56:57;;;;;;;50.28;26.35;;;9.40;99.90;;;;;;5027108;28;20033;-54
2022/02/09 10:59:25;;;;;;;17.05;8.23;;;9.50;99.90;;;;;;5016704;28;20028;-60
2022/02/09 11:01:52;;;;;;;6.70;3.35;;;9.50;99.90;;;;;;5022985;28;20029;-57
2022/02/09 11:04:18;;;;;;;7.15;4.20;;;9.50;99.90;;;;;;5002825;28;20042;-59
2022/02/09 11:06:45;;;;;;;9.07;5.28;;;9.60;99.90;;;;;;5030998;28;20104;-58
2022/02/09 11:09:13;;;;;;;6.43;3.53;;;9.60;99.90;;;;;;5030264;28;20491;-58
2022/02/09 11:11:41;;;;;;;14.90;6.57;;;9.60;99.90;;;;;;5029190;28;20021;-59
2022/02/09 11:14:15;;;;;;;7.32;3.67;;;9.60;99.90;;;;;;5028304;28;20045;-59
2022/02/09 11:16:42;;;;;;;5.72;3.22;;;9.70;99.90;;;;;;5018676;28;20076;-59
2022/02/09 11:19:09;;;;;;;5.18;3.22;;;9.80;99.90;;;;;;5021537;28;20492;-61
2022/02/09 11:21:38;;;;;;;8.77;4.03;;;9.80;99.90;;;;;;5021319;28;20652;-57
2022/02/09 11:24:17;;;;;;;11.60;5.03;;;9.80;99.90;;;;;;5024003;28;20111;-59
2022/02/09 11:27:00;;;;;;;11.85;5.40;;;9.90;99.90;;;;;;5018377;28;20025;-59
2022/02/09 11:29:43;;;;;;;6.55;3.70;;;10.00;99.90;;;;;;5016431;28;20491;-59
2022/02/09 11:32:29;;;;;;;16.45;6.03;;;10.00;99.90;;;;;;5021366;28;20105;-58
2022/02/09 11:35:12;;;;;;;13.73;3.20;;;10.10;99.90;;;;;;5019308;28;20022;-59
2022/02/09 11:37:52;;;;;;;8.15;3.88;;;10.10;99.90;;;;;;5018125;28;20400;-59
2022/02/09 11:52:12;;;;;;;13.50;4.75;;;10.00;99.90;;;;;;5014089;28;20053;-59
2022/02/09 11:55:16;;;;;;;11.80;3.50;;;10.00;99.90;;;;;;5013682;28;20037;-58
2022/02/09 12:09:41;;;;;;;6.32;3.38;;;10.00;99.90;;;;;;5035654;28;19916;-59
2022/02/09 12:12:12;;;;;;;7.10;3.67;;;10.00;99.90;;;;;;5039484;28;20163;-59
2022/02/09 12:15:00;;;;;;;7.28;4.13;;;9.90;99.90;;;;;;5049949;28;20676;-59
2022/02/09 12:22:46;;;;;;;7.35;3.20;;;9.80;99.90;;;;;;5038936;28;20041;-57
2022/02/09 12:25:12;;;;;;;10.90;4.75;;;9.80;99.90;;;;;;5036134;28;20120;-59
2022/02/09 12:27:38;;;;;;;12.95;5.95;;;9.90;99.90;;;;;;5031812;28;20133;-58
2022/02/09 12:30:12;;;;;;;34.80;16.95;;;9.90;99.90;;;;;;5043356;28;20029;-59
2022/02/09 12:32:38;;;;;;;13.18;6.05;;;9.80;99.90;;;;;;5042395;28;20033;-58
2022/02/09 12:35:13;;;;;;;9.82;4.60;;;9.90;99.90;;;;;;5038079;28;20037;-59
2022/02/09 12:37:45;;;;;;;14.95;6.57;;;9.90;99.90;;;;;;5047826;28;20490;-60
2022/02/09 12:40:19;;;;;;;11.02;5.65;;;9.90;99.90;;;;;;5039530;28;20035;-58
2022/02/09 12:42:54;;;;;;;;;;;9.90;99.90;;;;;;5037975;28;20037;-58
2022/02/09 12:45:25;;;;;;;12.45;5.05;;;9.90;99.90;;;;;;5031943;28;19995;-60
2022/02/09 12:47:52;;;;;;;12.38;5.18;;;9.90;99.90;;;;;;5040312;28;20033;-59
2022/02/09 12:50:30;;;;;;;9.40;4.85;;;9.90;99.90;;;;;;5032239;28;20096;-59
2022/02/09 12:52:57;;;;;;;6.55;3.75;;;10.00;99.90;;;;;;5041135;28;20016;-59
2022/02/09 12:55:28;;;;;;;14.40;5.53;;;10.00;99.90;;;;;;5038288;28;20037;-57
2022/02/09 12:57:55;;;;;;;11.40;3.97;;;10.10;99.90;;;;;;5042890;28;20390;-60
2022/02/09 13:00:28;;;;;;;11.88;5.32;;;10.10;99.90;;;;;;5035302;28;20036;-58
2022/02/09 13:02:59;;;;;;;9.60;3.90;;;10.10;99.90;;;;;;5034135;28;20065;-59
2022/02/09 13:05:26;;;;;;;8.20;3.58;;;10.10;99.90;;;;;;5030778;28;20127;-60
2022/02/09 13:08:00;;;;;;;6.38;3.20;;;10.20;99.90;;;;;;5035557;28;20028;-60
2022/02/09 13:10:28;;;;;;;5.88;3.42;;;10.20;99.90;;;;;;5034147;28;20025;-59
2022/02/09 13:12:57;;;;;;;9.95;3.78;;;10.20;99.90;;;;;;5040676;28;20037;-60
2022/02/09 13:15:30;;;;;;;13.60;4.47;;;10.20;99.90;;;;;;5038458;28;20022;-59
2022/02/09 13:23:38;;;;;;;13.85;6.07;;;10.20;99.90;;;;;;5031421;28;20021;-60
2022/02/09 14:56:56;;;;;;;14.73;5.22;;;10.50;99.90;;;;;;5033937;28;20030;-59
2022/02/09 14:59:44;;;;;;;14.75;3.80;;;10.50;99.90;;;;;;5042475;28;20029;-58
2022/02/09 15:02:24;;;;;;;10.80;3.50;;;10.40;99.90;;;;;;5039758;28;20033;-60
2022/02/09 15:10:06;;;;;;;15.27;3.83;;;10.40;99.90;;;;;;5033663;28;20021;-60
2022/02/09 15:12:48;;;;;;;13.52;3.40;;;10.50;99.90;;;;;;5038814;28;20065;-60
2022/02/09 15:15:28;;;;;;;19.85;4.90;;;10.50;99.90;;;;;;5048933;28;20029;-60
2022/02/09 15:20:49;;;;;;;10.57;4.20;;;10.40;99.90;;;;;;5032475;28;20553;-60
2022/02/09 15:23:17;;;;;;;15.30;3.55;;;10.40;99.90;;;;;;5041415;28;20091;-60
2022/02/09 15:25:44;;;;;;;12.90;3.50;;;10.40;99.90;;;;;;5033062;28;20057;-60
2022/02/09 15:28:10;;;;;;;10.98;3.03;;;10.40;99.90;;;;;;5050777;28;20112;-59
2022/02/09 15:30:47;;;;;;;10.05;2.78;;;10.40;99.90;;;;;;5041460;28;20052;-59
2022/02/09 15:33:16;;;;;;;10.88;3.35;;;10.50;99.90;;;;;;5036248;28;20041;-60
2022/02/09 15:35:42;;;;;;;20.10;4.43;;;10.40;99.90;;;;;;5037375;28;20074;-59
2022/02/09 15:38:14;;;;;;;9.23;3.53;;;10.40;99.90;;;;;;5043989;28;20490;-60
2022/02/09 15:43:23;;;;;;;15.25;3.95;;;10.30;99.90;;;;;;5035211;28;20026;-56
2022/02/09 15:57:14;;;;;;;13.73;4.22;;;10.10;99.90;;;;;;5032399;28;20400;-58
2022/02/09 15:59:45;;;;;;;15.82;4.60;;;10.00;99.90;;;;;;5040852;28;20056;-57
2022/02/09 16:10:03;;;;;;;12.57;3.90;;;9.90;99.90;;;;;;5025561;28;20026;-60
2022/02/09 16:23:33;;;;;;;32.75;13.02;;;9.50;99.90;;;;;;5024947;28;20036;-59
2022/02/09 16:37:16;;;;;;;43.83;21.77;;;9.10;99.90;;;;;;5021615;28;20402;-60
2022/02/09 16:44:56;;;;;;;31.27;13.27;;;9.00;99.90;;;;;;5015364;28;20105;-59
2022/02/09 16:50:03;;;;;;;44.78;17.30;;;8.90;99.90;;;;;;5030691;28;20017;-60
2022/02/09 17:15:25;;;;;;;22.13;8.77;;;8.50;99.90;;;;;;5046787;28;20043;-59
2022/02/09 17:19:52;;;;;;;35.60;17.98;;;8.30;99.90;;;;;;4977346;28;20134;-59
2022/02/09 17:22:17;;;;;;;35.47;14.98;;;8.30;99.90;;;;;;5040050;28;20116;-60
2022/02/09 17:24:43;;;;;;;24.58;12.30;;;8.20;99.90;;;;;;5036190;28;20527;-59
2022/02/09 17:27:16;;;;;;;20.60;10.48;;;8.20;99.90;;;;;;5050376;28;20494;-60
2022/02/09 17:32:46;;;;;;;19.00;8.77;;;8.10;99.90;;;;;;5032556;28;20063;-60
2022/02/09 17:35:25;;;;;;;22.00;10.15;;;8.00;99.90;;;;;;5029781;28;20540;-59
2022/02/09 17:38:17;;;;;;;27.92;12.43;;;7.90;99.90;;;;;;5032110;28;20025;-60
2022/02/09 17:57:06;;;;;;;53.90;22.00;;;7.40;99.90;;;;;;5029102;28;20083;-59
2022/02/09 17:59:33;;;;;;;70.28;28.42;;;7.40;99.90;;;;;;5029300;28;20029;-59
2022/02/09 18:01:59;;;;;;;113.00;44.42;;;7.30;99.90;;;;;;5028725;28;20039;-56
2022/02/09 18:04:24;;;;;;;81.18;32.88;;;7.20;99.90;;;;;;5001589;28;20025;-60
2022/02/09 18:06:57;;;;;;;67.15;26.70;;;7.20;99.90;;;;;;5039078;28;20046;-59
2022/02/09 18:09:31;;;;;;;79.53;31.10;;;7.30;99.90;;;;;;5034727;28;20494;-60
2022/02/09 18:12:17;;;;;;;81.68;30.85;;;7.30;99.90;;;;;;5032027;28;20030;-57
2022/02/09 18:26:21;;;;;;;72.15;27.55;;;7.00;99.90;;;;;;5031408;28;20095;-59
2022/02/09 18:31:14;;;;;;;33.95;16.95;;;7.00;99.90;;;;;;5035050;28;20367;-59
2022/02/09 18:34:04;;;;;;;36.63;15.02;;;7.00;99.90;;;;;;5040671;28;20064;-59
2022/02/09 18:40:19;;;;;;;29.77;11.50;;;7.00;99.90;;;;;;5036287;28;20037;-58
2022/02/09 18:47:48;;;;;;;21.05;9.05;;;6.90;99.90;;;;;;5049258;28;20044;-60
2022/02/09 19:05:56;;;;;;;17.95;7.35;;;7.20;99.90;;;;;;5036299;28;20038;-60
2022/02/09 19:14:10;;;;;;;15.80;7.70;;;7.20;99.90;;;;;;5043258;28;20056;-60
2022/02/09 19:16:47;;;;;;;23.75;8.75;;;7.40;99.90;;;;;;5043078;28;20025;-58
2022/02/09 19:46:17;;;;;;;15.77;7.00;;;7.10;99.90;;;;;;5033626;28;20471;-59
2022/02/09 19:48:51;;;;;;;23.98;7.53;;;7.10;99.90;;;;;;5039756;28;20098;-57
2022/02/09 19:53:56;;;;;;;21.60;7.50;;;7.10;99.90;;;;;;5036497;28;20029;-57
2022/02/09 19:56:24;;;;;;;19.50;7.00;;;7.00;99.90;;;;;;5043411;28;20025;-59
2022/02/09 19:59:00;;;;;;;19.90;8.10;;;7.00;99.90;;;;;;5039380;28;20021;-60
2022/02/09 20:01:33;;;;;;;20.23;7.15;;;7.00;99.90;;;;;;5039500;28;20028;-59
2022/02/09 20:03:59;;;;;;;16.73;7.63;;;6.90;99.90;;;;;;5043731;28;20052;-59
2022/02/09 20:06:24;;;;;;;20.92;7.53;;;6.80;99.90;;;;;;5040685;28;20441;-58
2022/02/09 20:08:50;;;;;;;28.73;7.53;;;6.70;99.90;;;;;;5040784;28;20491;-59
2022/02/09 20:11:17;;;;;;;20.60;8.63;;;6.70;99.90;;;;;;5037611;28;20741;-58
2022/02/09 20:13:44;;;;;;;21.13;9.73;;;6.60;99.90;;;;;;5039104;28;20842;-58
2022/02/09 20:16:10;;;;;;;21.77;9.82;;;6.50;99.90;;;;;;5041254;28;20064;-56
2022/02/09 20:18:36;;;;;;;23.33;9.68;;;6.50;99.90;;;;;;5042390;28;20057;-58
2022/02/09 20:21:03;;;;;;;27.00;10.82;;;6.50;99.90;;;;;;5036436;28;20068;-56
2022/02/09 20:23:31;;;;;;;20.85;8.75;;;6.40;99.90;;;;;;5037507;28;20031;-58
2022/02/09 20:25:59;;;;;;;22.02;9.93;;;6.40;99.90;;;;;;5037485;28;20128;-57
2022/02/09 20:28:24;;;;;;;19.92;8.73;;;6.40;99.90;;;;;;5040233;28;20021;-55
2022/02/09 20:31:09;;;;;;;24.77;9.68;;;6.30;99.90;;;;;;5031243;28;20033;-59
2022/02/09 20:33:40;;;;;;;32.47;13.15;;;6.20;99.90;;;;;;5047570;28;20445;-58
2022/02/09 20:36:08;;;;;;;18.58;9.77;;;6.20;99.90;;;;;;5036346;28;20442;-60
2022/02/09 20:38:35;;;;;;;31.33;12.48;;;6.20;99.90;;;;;;5033132;28;20091;-59
2022/02/09 20:41:06;;;;;;;25.60;9.38;;;6.20;99.90;;;;;;5041643;28;20022;-60
2022/02/09 20:43:33;;;;;;;25.45;10.88;;;6.10;99.90;;;;;;5036521;28;20061;-57
2022/02/09 20:46:04;;;;;;;22.70;9.93;;;6.10;99.90;;;;;;5039113;28;20031;-60
2022/02/09 20:48:29;;;;;;;22.38;9.73;;;6.10;99.90;;;;;;5040677;28;20044;-61
2022/02/09 20:50:58;;;;;;;27.50;10.15;;;6.10;99.90;;;;;;5046739;28;20025;-56
2022/02/09 20:53:25;;;;;;;22.67;10.10;;;6.10;99.90;;;;;;5043439;28;20094;-58
2022/02/09 20:55:51;;;;;;;29.45;14.32;;;6.10;99.90;;;;;;5032071;28;20038;-59
2022/02/09 20:58:19;;;;;;;23.98;10.80;;;6.00;99.90;;;;;;5032406;28;20096;-58
2022/02/09 21:01:02;;;;;;;26.40;11.18;;;6.00;99.90;;;;;;5041241;28;20074;-59
2022/02/09 21:06:08;;;;;;;31.65;13.13;;;5.80;99.90;;;;;;5039622;28;20068;-58
2022/02/09 21:11:25;;;;;;;28.08;12.88;;;5.70;99.90;;;;;;5040356;28;20086;-59
2022/02/09 21:16:38;;;;;;;27.23;13.75;;;5.60;99.90;;;;;;5038867;28;20032;-59
2022/02/09 21:24:57;;;;;;;27.80;13.57;;;5.50;99.90;;;;;;5048587;28;20153;-60
2022/02/09 21:28:51;;;;;;;22.42;11.55;;;5.50;99.90;;;;;;5040692;28;20132;-60
2022/02/09 21:33:12;;;;;;;20.38;10.02;;;5.50;99.90;;;;;;5038496;28;20048;-58
2022/02/09 21:55:08;;;;;;;33.97;11.23;;;5.20;99.90;;;;;;5035482;28;20377;-58
2022/02/09 22:00:30;;;;;;;27.10;12.85;;;5.20;99.90;;;;;;5020367;28;20146;-59
2022/02/09 22:19:13;;;;;;;34.55;13.50;;;5.00;99.90;;;;;;5036503;28;20044;-59
2022/02/09 22:20:09;;;;;;;30.77;14.52;;;5.00;99.90;;;;;;5031929;28;20036;-60
2022/02/09 22:22:50;;;;;;;27.75;13.05;;;5.00;99.90;;;;;;5044059;28;20055;-60
2022/02/09 22:27:57;;;;;;;31.98;14.93;;;5.00;99.90;;;;;;5040855;28;20474;-60
2022/02/09 22:56:52;;;;;;;33.05;13.50;;;4.80;99.90;;;;;;5038792;28;20076;-58
2022/02/09 22:59:29;;;;;;;27.02;13.48;;;4.80;99.90;;;;;;5039245;28;20021;-60
2022/02/09 23:02:07;;;;;;;27.77;13.20;;;4.80;99.90;;;;;;5033286;28;20455;-60
2022/02/09 23:10:04;;;;;;;31.33;14.25;;;4.70;99.90;;;;;;5045595;28;20376;-60
2022/02/09 23:15:16;;;;;;;36.05;15.82;;;4.70;99.90;;;;;;5043165;28;20021;-57
